createdAt,value
2022-12-06T00:01:59.283Z,-8.21
2022-12-06T00:04:28.983Z,-8.18
2022-12-06T00:06:59.611Z,-8.17
2022-12-06T00:09:32.486Z,-8.18
2022-12-06T00:12:02.192Z,-8.19
2022-12-06T00:14:31.199Z,-8.19
2022-12-06T00:17:00.610Z,-8.22
2022-12-06T00:19:29.928Z,-8.22
2022-12-06T00:21:59.366Z,-8.23
2022-12-06T00:24:28.405Z,-8.19
2022-12-06T00:26:57.329Z,-8.12
2022-12-06T00:29:26.602Z,-8.10
2022-12-06T00:31:55.829Z,-8.10
2022-12-06T00:34:25.267Z,-8.05
2022-12-06T00:36:54.265Z,-8.06
2022-12-06T00:39:23.355Z,-8.02
2022-12-06T00:41:52.954Z,-7.98
2022-12-06T00:44:22.084Z,-7.93
2022-12-06T00:46:51.330Z,-7.87
2022-12-06T00:49:20.515Z,-7.82
2022-12-06T00:51:49.494Z,-7.74
2022-12-06T00:54:19.580Z,-7.72
2022-12-06T00:56:48.783Z,-7.72
2022-12-06T00:59:17.915Z,-7.73
2022-12-06T01:01:47.282Z,-7.76
2022-12-06T01:04:17.219Z,-7.82
2022-12-06T01:06:46.294Z,-7.78
2022-12-06T01:09:18.173Z,-7.75
2022-12-06T01:11:47.178Z,-7.77
2022-12-06T01:14:16.169Z,-7.79
2022-12-06T01:16:45.271Z,-7.84
2022-12-06T01:19:14.862Z,-7.91
2022-12-06T01:21:44.084Z,-7.95
2022-12-06T01:24:13.172Z,-8.00
2022-12-06T01:26:42.152Z,-8.08
2022-12-06T01:29:12.325Z,-8.10
2022-12-06T01:31:41.177Z,-8.17
2022-12-06T01:34:18.096Z,-8.26
2022-12-06T01:36:47.318Z,-8.34
2022-12-06T01:39:16.593Z,-8.43
2022-12-06T01:41:45.593Z,-8.53
2022-12-06T01:44:42.249Z,-8.64
2022-12-06T01:47:27.513Z,-8.78
2022-12-06T01:50:05.904Z,-8.93
2022-12-06T01:52:55.938Z,-8.98
2022-12-06T01:55:32.138Z,-8.99
2022-12-06T01:58:11.317Z,-9.00
2022-12-06T02:00:41.007Z,-9.15
2022-12-06T02:03:24.335Z,-9.34
2022-12-06T02:05:56.983Z,-9.52
2022-12-06T02:08:27.574Z,-9.62
2022-12-06T02:10:57.263Z,-9.63
2022-12-06T02:13:28.206Z,-9.74
2022-12-06T02:16:25.994Z,-9.86
2022-12-06T02:19:12.539Z,-9.98
2022-12-06T02:22:21.095Z,-10.09
2022-12-06T02:25:17.620Z,-10.14
2022-12-06T02:28:36.312Z,-10.19
2022-12-06T02:31:44.092Z,-10.33
2022-12-06T02:34:44.083Z,-10.42
2022-12-06T02:37:38.794Z,-10.45
2022-12-06T02:40:35.478Z,-10.48
2022-12-06T02:43:39.132Z,-10.49
2022-12-06T02:46:09.368Z,-10.52
2022-12-06T02:48:40.670Z,-10.57
2022-12-06T02:51:16.449Z,-10.61
2022-12-06T02:53:52.017Z,-10.65
2022-12-06T02:56:22.248Z,-10.69
2022-12-06T02:58:51.506Z,-10.76
2022-12-06T03:01:34.751Z,-10.82
2022-12-06T03:04:33.643Z,-10.90
2022-12-06T03:07:38.063Z,-10.94
2022-12-06T03:10:29.765Z,-11.00
2022-12-06T03:13:48.066Z,-11.05
2022-12-06T03:16:34.554Z,-11.10
2022-12-06T03:19:22.136Z,-11.13
2022-12-06T03:22:19.995Z,-11.15
2022-12-06T03:24:49.309Z,-11.21
2022-12-06T03:27:22.079Z,-11.27
2022-12-06T03:29:59.297Z,-11.28
2022-12-06T03:32:34.817Z,-11.30
2022-12-06T03:35:11.256Z,-11.32
2022-12-06T03:37:46.564Z,-11.38
2022-12-06T03:40:32.052Z,-11.41
2022-12-06T03:43:04.218Z,-11.42
2022-12-06T03:45:54.724Z,-11.43
2022-12-06T03:48:37.706Z,-11.45
2022-12-06T03:51:12.513Z,-11.46
2022-12-06T03:54:00.532Z,-11.55
2022-12-06T03:56:37.922Z,-11.57
2022-12-06T03:59:09.772Z,-11.59
2022-12-06T04:01:40.618Z,-11.64
2022-12-06T04:04:12.061Z,-11.70
2022-12-06T04:06:41.159Z,-11.77
2022-12-06T04:09:29.859Z,-11.80
2022-12-06T04:11:58.826Z,-11.82
2022-12-06T04:14:33.581Z,-11.87
2022-12-06T04:17:34.498Z,-11.90
2022-12-06T04:20:04.710Z,-11.94
2022-12-06T04:22:52.243Z,-11.96
2022-12-06T04:25:21.346Z,-12.00
2022-12-06T04:28:08.688Z,-12.06
2022-12-06T04:30:55.582Z,-12.06
2022-12-06T04:33:42.953Z,-12.01
2022-12-06T04:36:30.164Z,-12.03
2022-12-06T04:39:01.478Z,-12.05
2022-12-06T04:41:48.935Z,-12.12
2022-12-06T04:44:18.611Z,-12.15
2022-12-06T04:46:47.711Z,-12.18
2022-12-06T04:49:17.026Z,-12.21
2022-12-06T04:51:46.243Z,-12.22
2022-12-06T04:54:16.198Z,-12.28
2022-12-06T04:56:45.379Z,-12.32
2022-12-06T04:59:14.415Z,-12.31
2022-12-06T05:01:43.581Z,-12.36
2022-12-06T05:04:12.605Z,-12.37
2022-12-06T05:06:41.782Z,-12.50
2022-12-06T05:09:10.725Z,-12.60
2022-12-06T05:11:39.825Z,-12.61
2022-12-06T05:14:09.027Z,-12.63
2022-12-06T05:16:38.104Z,-12.64
2022-12-06T05:19:10.482Z,-12.61
2022-12-06T05:21:40.233Z,-12.61
2022-12-06T05:24:09.952Z,-12.67
2022-12-06T05:26:39.060Z,-12.73
2022-12-06T05:29:07.978Z,-12.75
2022-12-06T05:31:36.983Z,-12.79
2022-12-06T05:34:05.933Z,-12.86
2022-12-06T05:36:35.071Z,-12.85
2022-12-06T05:39:04.511Z,-12.86
2022-12-06T05:41:33.751Z,-12.85
2022-12-06T05:44:02.689Z,-12.88
2022-12-06T05:46:31.632Z,-12.91
2022-12-06T05:49:00.478Z,-12.98
2022-12-06T05:51:29.491Z,-13.03
2022-12-06T05:53:58.729Z,-13.14
2022-12-06T05:56:28.178Z,-13.16
2022-12-06T05:58:57.364Z,-13.24
2022-12-06T06:01:26.476Z,-13.32
2022-12-06T06:03:55.672Z,-13.41
2022-12-06T06:06:24.929Z,-13.48
2022-12-06T06:08:53.984Z,-13.57
2022-12-06T06:11:24.021Z,-13.57
2022-12-06T06:13:55.519Z,-13.57
2022-12-06T06:16:24.537Z,-13.59
2022-12-06T06:18:53.851Z,-13.69
2022-12-06T06:21:23.672Z,-13.81
2022-12-06T06:23:53.055Z,-13.89
2022-12-06T06:26:24.857Z,-13.96
2022-12-06T06:28:54.024Z,-14.02
2022-12-06T06:31:23.766Z,-14.06
2022-12-06T06:33:52.837Z,-14.08
2022-12-06T06:36:21.886Z,-14.14
2022-12-06T06:38:50.964Z,-14.13
2022-12-06T06:41:20.088Z,-14.13
2022-12-06T06:43:49.247Z,-14.15
2022-12-06T06:46:18.509Z,-14.23
2022-12-06T06:48:49.268Z,-14.28
2022-12-06T06:51:18.591Z,-14.30
2022-12-06T06:53:47.529Z,-14.36
2022-12-06T06:56:17.075Z,-14.47
2022-12-06T06:58:46.079Z,-14.47
2022-12-06T07:01:24.819Z,-14.52
2022-12-06T07:03:54.331Z,-14.56
2022-12-06T07:06:23.882Z,-14.63
2022-12-06T07:08:53.343Z,-14.70
2022-12-06T07:11:24.923Z,-14.74
2022-12-06T07:13:54.034Z,-14.76
2022-12-06T07:16:23.147Z,-14.80
2022-12-06T07:18:52.650Z,-14.84
2022-12-06T07:21:24.588Z,-14.85
2022-12-06T07:23:54.323Z,-14.89
2022-12-06T07:26:25.835Z,-14.91
2022-12-06T07:28:54.752Z,-14.95
2022-12-06T07:31:28.059Z,-14.97
2022-12-06T07:34:02.968Z,-14.93
2022-12-06T07:36:33.657Z,-14.94
2022-12-06T07:39:03.078Z,-14.96
2022-12-06T07:41:50.707Z,-15.01
2022-12-06T07:44:38.509Z,-15.11
2022-12-06T07:47:07.750Z,-15.15
2022-12-06T07:49:36.830Z,-15.19
2022-12-06T07:52:05.907Z,-15.20
2022-12-06T07:54:35.004Z,-15.27
2022-12-06T07:57:04.619Z,-15.29
2022-12-06T07:59:33.512Z,-15.26
2022-12-06T08:02:02.549Z,-15.28
2022-12-06T08:04:31.683Z,-15.27
2022-12-06T08:07:01.853Z,-15.31
2022-12-06T08:09:30.995Z,-15.28
2022-12-06T08:12:02.566Z,-15.32
2022-12-06T08:14:31.729Z,-15.35
2022-12-06T08:17:00.691Z,-15.36
2022-12-06T08:19:29.925Z,-15.41
2022-12-06T08:21:59.067Z,-15.53
2022-12-06T08:24:27.976Z,-15.53
2022-12-06T08:26:57.270Z,-15.55
2022-12-06T08:29:26.354Z,-15.53
2022-12-06T08:31:55.513Z,-15.53
2022-12-06T08:34:24.667Z,-15.54
2022-12-06T08:36:56.036Z,-15.62
2022-12-06T08:39:29.613Z,-15.67
2022-12-06T08:42:04.070Z,-15.63
2022-12-06T08:44:34.381Z,-15.64
2022-12-06T08:47:04.608Z,-15.70
2022-12-06T08:49:33.839Z,-15.74
2022-12-06T08:52:03.338Z,-15.74
2022-12-06T08:54:33.053Z,-15.76
2022-12-06T08:57:02.123Z,-15.79
2022-12-06T08:59:31.050Z,-15.81
2022-12-06T09:02:00.499Z,-15.76
2022-12-06T09:04:30.134Z,-15.74
2022-12-06T09:06:59.266Z,-15.70
2022-12-06T09:09:28.614Z,-15.72
2022-12-06T09:11:57.707Z,-15.74
2022-12-06T09:14:26.825Z,-15.76
2022-12-06T09:16:56.035Z,-15.80
2022-12-06T09:19:24.922Z,-15.82
2022-12-06T09:21:53.756Z,-15.90
2022-12-06T09:24:23.226Z,-15.92
2022-12-06T09:26:52.166Z,-15.95
2022-12-06T09:29:24.135Z,-15.95
2022-12-06T09:31:55.087Z,-15.92
2022-12-06T09:34:24.135Z,-15.90
2022-12-06T09:37:10.317Z,-15.91
2022-12-06T09:39:48.959Z,-15.97
2022-12-06T09:42:37.516Z,-16.04
2022-12-06T09:45:49.458Z,-16.06
2022-12-06T09:48:53.115Z,-16.01
2022-12-06T09:51:41.951Z,-15.99
2022-12-06T09:54:55.873Z,-16.03
2022-12-06T09:57:55.666Z,-16.09
2022-12-06T10:00:26.386Z,-16.10
2022-12-06T10:03:01.201Z,-16.11
2022-12-06T10:06:05.079Z,-16.11
2022-12-06T10:08:56.343Z,-16.14
2022-12-06T10:12:11.318Z,-16.14
2022-12-06T10:14:57.986Z,-16.09
2022-12-06T10:17:50.537Z,-16.17
2022-12-06T10:21:07.198Z,-16.16
2022-12-06T10:24:20.465Z,-16.21
2022-12-06T10:27:01.708Z,-16.17
2022-12-06T10:29:42.439Z,-16.14
2022-12-06T10:33:06.449Z,-16.14
2022-12-06T10:35:48.921Z,-16.21
2022-12-06T10:39:04.374Z,-16.22
2022-12-06T10:41:46.309Z,-16.26
2022-12-06T10:44:54.966Z,-16.29
2022-12-06T10:47:45.519Z,-16.34
2022-12-06T10:50:31.169Z,-16.43
2022-12-06T10:53:14.464Z,-16.49
2022-12-06T10:56:01.606Z,-16.52
2022-12-06T10:59:18.906Z,-16.53
2022-12-06T11:01:50.295Z,-16.63
2022-12-06T11:04:33.780Z,-16.72
2022-12-06T11:07:19.850Z,-16.85
2022-12-06T11:09:54.949Z,-16.97
2022-12-06T11:12:40.686Z,-17.07
2022-12-06T11:15:36.930Z,-17.25
2022-12-06T11:18:16.844Z,-17.33
2022-12-06T11:21:07.765Z,-17.40
2022-12-06T11:24:17.005Z,-17.54
2022-12-06T11:26:50.993Z,-17.71
2022-12-06T11:29:20.783Z,-17.76
2022-12-06T11:31:56.374Z,-17.79
2022-12-06T11:34:38.227Z,-17.85
2022-12-06T11:37:12.416Z,-17.95
2022-12-06T11:39:41.859Z,-18.00
2022-12-06T11:42:16.671Z,-18.11
2022-12-06T11:44:55.191Z,-18.26
2022-12-06T11:47:25.755Z,-18.41
2022-12-06T11:50:02.800Z,-18.49
2022-12-06T11:52:49.319Z,-18.53
2022-12-06T11:55:36.290Z,-18.70
2022-12-06T11:58:31.530Z,-18.76
2022-12-06T12:01:11.908Z,-18.84
2022-12-06T12:03:47.586Z,-18.94
2022-12-06T12:06:25.261Z,-18.94
2022-12-06T12:09:01.568Z,-18.94
2022-12-06T12:11:35.907Z,-19.02
2022-12-06T12:14:17.383Z,-19.01
2022-12-06T12:16:52.042Z,-19.04
2022-12-06T12:19:48.541Z,-19.08
2022-12-06T12:23:27.893Z,-19.09
2022-12-06T12:26:17.125Z,-19.16
2022-12-06T12:29:05.797Z,-19.27
2022-12-06T12:31:46.739Z,-19.29
2022-12-06T12:34:41.581Z,-19.26
2022-12-06T12:37:23.212Z,-19.25
2022-12-06T12:39:56.671Z,-19.33
2022-12-06T12:42:36.024Z,-19.37
2022-12-06T12:45:07.515Z,-19.33
2022-12-06T12:47:37.697Z,-19.32
2022-12-06T12:50:21.519Z,-19.34
2022-12-06T12:52:51.145Z,-19.37
2022-12-06T12:55:26.267Z,-19.42
2022-12-06T12:57:59.937Z,-19.50
2022-12-06T13:00:44.695Z,-19.58
2022-12-06T13:03:50.064Z,-19.56
2022-12-06T13:06:46.374Z,-19.55
2022-12-06T13:09:30.665Z,-19.53
2022-12-06T13:12:12.188Z,-19.53
2022-12-06T13:14:53.204Z,-19.55
2022-12-06T13:17:28.478Z,-19.61
2022-12-06T13:19:57.659Z,-19.63
2022-12-06T13:22:34.210Z,-19.63
2022-12-06T13:25:09.341Z,-19.69
2022-12-06T13:27:48.324Z,-19.70
2022-12-06T13:30:26.631Z,-19.72
2022-12-06T13:33:25.848Z,-19.73
2022-12-06T13:36:13.619Z,-19.69
2022-12-06T13:38:45.057Z,-19.73
2022-12-06T13:41:56.025Z,-19.79
2022-12-06T13:44:52.371Z,-19.75
2022-12-06T13:47:31.387Z,-19.80
2022-12-06T13:50:20.621Z,-19.79
2022-12-06T13:52:49.887Z,-19.74
2022-12-06T13:55:29.642Z,-19.68
2022-12-06T13:58:19.008Z,-19.62
2022-12-06T14:00:52.498Z,-19.57
2022-12-06T14:03:21.564Z,-19.51
2022-12-06T14:06:15.943Z,-19.50
2022-12-06T14:09:02.128Z,-19.50
2022-12-06T14:11:39.547Z,-19.51
2022-12-06T14:14:26.696Z,-19.53
2022-12-06T14:17:07.099Z,-19.56
2022-12-06T14:19:52.130Z,-19.55
2022-12-06T14:22:29.165Z,-19.62
2022-12-06T14:25:19.781Z,-19.67
2022-12-06T14:27:52.951Z,-19.71
2022-12-06T14:30:27.048Z,-19.68
2022-12-06T14:32:59.518Z,-19.65
2022-12-06T14:35:28.562Z,-19.67
2022-12-06T14:38:03.046Z,-19.70
2022-12-06T14:41:01.996Z,-19.75
2022-12-06T14:43:35.024Z,-19.76
2022-12-06T14:46:16.227Z,-19.74
2022-12-06T14:52:01.042Z,-19.84
2022-12-06T14:54:36.202Z,-19.83
2022-12-06T14:57:06.255Z,-19.86
2022-12-06T15:02:30.598Z,-19.93
2022-12-06T15:05:01.237Z,-19.95
2022-12-06T15:07:56.331Z,-19.92
2022-12-06T15:10:33.871Z,-19.91
2022-12-06T15:13:20.220Z,-19.89
2022-12-06T15:15:50.181Z,-19.90
2022-12-06T15:18:26.721Z,-19.87
2022-12-06T15:20:56.622Z,-19.90
2022-12-06T15:23:42.469Z,-19.90
2022-12-06T15:26:14.625Z,-19.86
2022-12-06T15:28:44.171Z,-19.89
2022-12-06T15:31:20.982Z,-19.90
2022-12-06T15:33:51.049Z,-19.88
2022-12-06T15:36:27.990Z,-19.88
2022-12-06T15:38:57.376Z,-19.82
2022-12-06T15:41:29.761Z,-19.85
2022-12-06T15:43:58.624Z,-19.90
2022-12-06T15:46:30.745Z,-19.96
2022-12-06T15:49:00.403Z,-20.00
2022-12-06T15:51:30.703Z,-20.06
2022-12-06T15:54:03.829Z,-20.10
2022-12-06T15:56:33.002Z,-20.11
2022-12-06T15:59:02.161Z,-20.10
2022-12-06T16:01:44.736Z,-20.11
2022-12-06T16:04:22.301Z,-20.13
2022-12-06T16:06:51.853Z,-20.14
2022-12-06T16:09:21.574Z,-20.08
2022-12-06T16:11:50.445Z,-20.07
2022-12-06T16:14:19.375Z,-20.10
2022-12-06T16:16:48.288Z,-20.06
2022-12-06T16:19:17.602Z,-20.04
2022-12-06T16:21:59.595Z,-19.99
2022-12-06T16:24:28.448Z,-20.02
2022-12-06T16:26:57.309Z,-20.02
2022-12-06T16:29:26.235Z,-20.01
2022-12-06T16:31:55.631Z,-20.04
2022-12-06T16:34:24.710Z,-20.02
2022-12-06T16:37:01.060Z,-20.05
2022-12-06T16:39:34.491Z,-20.05
2022-12-06T16:42:05.120Z,-20.08
2022-12-06T16:44:34.161Z,-20.09
2022-12-06T16:47:03.148Z,-20.06
2022-12-06T16:49:49.384Z,-20.01
2022-12-06T16:52:19.082Z,-20.05
2022-12-06T16:54:48.185Z,-20.10
2022-12-06T16:57:17.338Z,-20.08
2022-12-06T16:59:47.195Z,-19.98
2022-12-06T17:02:35.470Z,-19.99
2022-12-06T17:05:07.462Z,-19.99
2022-12-06T17:07:37.807Z,-20.03
2022-12-06T17:10:07.733Z,-20.08
2022-12-06T17:12:36.746Z,-20.06
2022-12-06T17:15:06.580Z,-20.11
2022-12-06T17:17:35.531Z,-20.12
2022-12-06T17:20:04.497Z,-20.10
2022-12-06T17:22:33.528Z,-20.00
2022-12-06T17:25:03.001Z,-19.95
2022-12-06T17:27:32.214Z,-19.92
2022-12-06T17:30:01.422Z,-19.84
2022-12-06T17:32:31.059Z,-19.89
2022-12-06T17:35:00.181Z,-19.93
2022-12-06T17:37:29.354Z,-19.93
2022-12-06T17:40:00.708Z,-19.98
2022-12-06T17:42:47.913Z,-19.98
2022-12-06T17:45:19.587Z,-19.94
2022-12-06T17:47:52.215Z,-20.00
2022-12-06T17:50:20.984Z,-20.05
2022-12-06T17:52:49.748Z,-20.01
2022-12-06T17:58:20.154Z,-19.80
2022-12-06T18:00:49.578Z,-19.73
2022-12-06T18:03:18.677Z,-19.70
2022-12-06T18:05:49.388Z,-19.76
2022-12-06T18:08:18.681Z,-19.77
2022-12-06T18:10:47.725Z,-19.85
2022-12-06T18:13:17.288Z,-19.84
2022-12-06T18:15:46.373Z,-19.80
2022-12-06T18:18:15.406Z,-19.75
2022-12-06T18:20:44.998Z,-19.82
2022-12-06T18:23:14.849Z,-19.90
2022-12-06T18:25:44.922Z,-19.86
2022-12-06T18:28:14.089Z,-19.84
2022-12-06T18:30:43.305Z,-19.86
2022-12-06T18:33:17.566Z,-19.80
2022-12-06T18:35:48.465Z,-19.79
2022-12-06T18:38:17.567Z,-19.81
2022-12-06T18:40:47.115Z,-19.77
2022-12-06T18:43:16.243Z,-19.75
2022-12-06T18:45:45.849Z,-19.69
2022-12-06T18:48:15.216Z,-19.63
2022-12-06T18:50:44.466Z,-19.58
2022-12-06T18:53:14.276Z,-19.51
2022-12-06T18:55:44.417Z,-19.42
2022-12-06T18:58:13.396Z,-19.45
2022-12-06T19:00:44.580Z,-19.43
2022-12-06T19:03:14.976Z,-19.35
2022-12-06T19:06:02.429Z,-19.22
2022-12-06T19:08:31.835Z,-19.10
2022-12-06T19:11:03.495Z,-19.01
2022-12-06T19:13:32.469Z,-19.00
2022-12-06T19:16:06.287Z,-19.00
2022-12-06T19:18:35.558Z,-18.92
2022-12-06T19:21:04.812Z,-18.90
2022-12-06T19:23:34.387Z,-18.87
2022-12-06T19:26:05.227Z,-18.83
2022-12-06T19:28:35.429Z,-18.82
2022-12-06T19:31:08.687Z,-18.76
2022-12-06T19:33:42.102Z,-18.63
2022-12-06T19:36:25.290Z,-18.53
2022-12-06T19:39:04.175Z,-18.48
2022-12-06T19:41:33.988Z,-18.42
2022-12-06T19:44:18.772Z,-18.45
2022-12-06T19:46:49.337Z,-18.44
2022-12-06T19:49:22.491Z,-18.38
2022-12-06T19:51:52.758Z,-18.37
2022-12-06T19:54:33.703Z,-18.32
2022-12-06T19:57:03.736Z,-18.18
2022-12-06T19:59:40.210Z,-18.17
2022-12-06T20:02:11.420Z,-18.15
2022-12-06T20:04:43.480Z,-18.06
2022-12-06T20:07:13.401Z,-18.02
2022-12-06T20:09:42.608Z,-17.99
2022-12-06T20:12:14.479Z,-18.04
2022-12-06T20:14:49.398Z,-17.93
2022-12-06T20:17:25.132Z,-17.84
2022-12-06T20:19:54.118Z,-17.78
2022-12-06T20:22:25.932Z,-17.70
2022-12-06T20:24:55.015Z,-17.69
2022-12-06T20:27:44.167Z,-17.68
2022-12-06T20:30:14.283Z,-17.59
2022-12-06T20:32:43.922Z,-17.54
2022-12-06T20:35:12.844Z,-17.60
2022-12-06T20:37:42.722Z,-17.56
2022-12-06T20:40:12.744Z,-17.51
2022-12-06T20:42:41.716Z,-17.44
2022-12-06T20:45:10.967Z,-17.41
2022-12-06T20:47:40.118Z,-17.46
2022-12-06T20:50:10.484Z,-17.43
2022-12-06T20:52:39.443Z,-17.36
2022-12-06T20:55:09.026Z,-17.38
2022-12-06T20:57:38.948Z,-17.34
2022-12-06T21:00:11.854Z,-17.32
2022-12-06T21:02:41.466Z,-17.39
2022-12-06T21:05:10.860Z,-17.43
2022-12-06T21:07:39.957Z,-17.43
2022-12-06T21:10:10.137Z,-17.37
2022-12-06T21:12:39.146Z,-17.28
2022-12-06T21:15:08.942Z,-17.26
2022-12-06T21:17:38.371Z,-17.31
2022-12-06T21:20:09.103Z,-17.32
2022-12-06T21:22:38.356Z,-17.31
2022-12-06T21:25:07.754Z,-17.33
2022-12-06T21:27:36.850Z,-17.32
2022-12-06T21:30:08.845Z,-17.35
2022-12-06T21:32:38.111Z,-17.39
2022-12-06T21:35:07.557Z,-17.42
2022-12-06T21:37:36.972Z,-17.43
2022-12-06T21:40:06.958Z,-17.47
2022-12-06T21:42:36.004Z,-17.53
2022-12-06T21:45:05.971Z,-17.60
2022-12-06T21:47:35.340Z,-17.69
2022-12-06T21:50:04.711Z,-17.75
2022-12-06T21:52:33.831Z,-17.77
2022-12-06T21:55:03.018Z,-17.68
2022-12-06T21:57:35.773Z,-17.58
2022-12-06T22:00:22.621Z,-17.55
2022-12-06T22:03:04.737Z,-17.52
2022-12-06T22:05:36.563Z,-17.42
2022-12-06T22:08:17.718Z,-17.37
2022-12-06T22:10:48.977Z,-17.33
2022-12-06T22:13:25.283Z,-17.31
2022-12-06T22:15:57.844Z,-17.27
2022-12-06T22:18:38.771Z,-17.25
2022-12-06T22:21:30.597Z,-17.18
2022-12-06T22:24:12.263Z,-17.15
2022-12-06T22:26:41.652Z,-17.10
2022-12-06T22:29:11.771Z,-17.08
2022-12-06T22:31:40.899Z,-17.05
2022-12-06T22:34:12.573Z,-17.01
2022-12-06T22:36:41.996Z,-16.92
2022-12-06T22:39:13.009Z,-16.89
2022-12-06T22:41:42.354Z,-16.82
2022-12-06T22:44:13.832Z,-16.76
2022-12-06T22:46:43.267Z,-16.75
2022-12-06T22:49:17.861Z,-16.89
2022-12-06T22:51:47.757Z,-16.94
2022-12-06T22:54:17.409Z,-16.82
2022-12-06T22:56:49.985Z,-16.69
2022-12-06T22:59:19.933Z,-16.63
2022-12-06T23:01:49.285Z,-16.62
2022-12-06T23:04:18.860Z,-16.65
2022-12-06T23:06:48.245Z,-16.73
2022-12-06T23:09:18.387Z,-16.74
2022-12-06T23:11:47.609Z,-16.65
2022-12-06T23:14:17.023Z,-16.56
2022-12-06T23:16:46.662Z,-16.52
2022-12-06T23:19:16.205Z,-16.49
2022-12-06T23:21:45.642Z,-16.41
2022-12-06T23:24:16.587Z,-16.35
2022-12-06T23:26:56.082Z,-16.36
2022-12-06T23:29:27.158Z,-16.37
2022-12-06T23:31:56.563Z,-16.36
2022-12-06T23:34:27.634Z,-16.31
2022-12-06T23:36:58.273Z,-16.35
2022-12-06T23:39:28.008Z,-16.33
2022-12-06T23:41:57.743Z,-16.27
2022-12-06T23:44:27.286Z,-16.29
2022-12-06T23:46:56.720Z,-16.25
2022-12-06T23:49:26.136Z,-16.24
2022-12-06T23:51:55.523Z,-16.22
2022-12-06T23:54:25.004Z,-16.26
2022-12-06T23:56:55.538Z,-16.25
2022-12-06T23:59:24.741Z,-16.29
